Terminal Aerodrome Forecast
Issued by NWS

Current Version | Previous Version | Text Only | Print | Product List | Glossary Off
Versions: 1 2 3 4 5 6 7 8 9 10 11 12 13 14 15 16 17 18 19

000
FTUS41 KPBZ 211003 AAA
TAFMGW
TAF AMD
KMGW 211003Z 2110/2206 05005KT P6SM SCT006 OVC060
      TEMPO 2110/2114 -SHRA BKN006
     FM211800 30008KT P6SM BKN035=

USA.gov is the U.S. government's official web portal to all federal, state and local government web resources and services.